sensor_id;sensor_type;location;lat;lon;timestamp;P1;durP1;ratioP1;P2;durP2;ratioP2
43803;SDS011;29430;52.924;-2.388;2023-06-22T00:04:42;5.35;;;3.00;;
43803;SDS011;29430;52.924;-2.388;2023-06-22T00:09:35;5.65;;;2.83;;
43803;SDS011;29430;52.924;-2.388;2023-06-22T00:14:27;5.07;;;3.58;;
43803;SDS011;29430;52.924;-2.388;2023-06-22T00:19:18;8.45;;;4.65;;
43803;SDS011;29430;52.924;-2.388;2023-06-22T00:24:12;7.00;;;4.32;;
43803;SDS011;29430;52.924;-2.388;2023-06-22T00:29:04;9.23;;;4.85;;
43803;SDS011;29430;52.924;-2.388;2023-06-22T00:33:56;7.68;;;4.03;;
43803;SDS011;29430;52.924;-2.388;2023-06-22T00:38:48;5.05;;;3.47;;
43803;SDS011;29430;52.924;-2.388;2023-06-22T00:43:41;7.82;;;4.10;;
43803;SDS011;29430;52.924;-2.388;2023-06-22T00:48:33;4.50;;;3.47;;
43803;SDS011;29430;52.924;-2.388;2023-06-22T00:53:25;6.93;;;4.15;;
43803;SDS011;29430;52.924;-2.388;2023-06-22T00:58:17;6.85;;;3.40;;
43803;SDS011;29430;52.924;-2.388;2023-06-22T01:03:13;5.88;;;3.75;;
43803;SDS011;29430;52.924;-2.388;2023-06-22T01:18:48;5.32;;;3.38;;
43803;SDS011;29430;52.924;-2.388;2023-06-22T01:23:51;5.30;;;2.95;;
43803;SDS011;29430;52.924;-2.388;2023-06-22T01:28:57;5.60;;;3.47;;
43803;SDS011;29430;52.924;-2.388;2023-06-22T01:33:51;4.93;;;3.45;;
43803;SDS011;29430;52.924;-2.388;2023-06-22T01:38:46;6.85;;;3.47;;
43803;SDS011;29430;52.924;-2.388;2023-06-22T01:43:39;6.75;;;3.33;;
43803;SDS011;29430;52.924;-2.388;2023-06-22T01:48:32;5.07;;;2.67;;
43803;SDS011;29430;52.924;-2.388;2023-06-22T01:53:24;8.63;;;3.20;;
43803;SDS011;29430;52.924;-2.388;2023-06-22T01:58:16;9.02;;;3.15;;
43803;SDS011;29430;52.924;-2.388;2023-06-22T02:03:08;7.25;;;2.80;;
43803;SDS011;29430;52.924;-2.388;2023-06-22T02:08:40;4.75;;;2.20;;
43803;SDS011;29430;52.924;-2.388;2023-06-22T02:18:34;4.82;;;2.33;;
43803;SDS011;29430;52.924;-2.388;2023-06-22T02:23:27;6.15;;;3.15;;
43803;SDS011;29430;52.924;-2.388;2023-06-22T02:28:19;9.77;;;3.42;;
43803;SDS011;29430;52.924;-2.388;2023-06-22T02:33:11;4.43;;;2.50;;
43803;SDS011;29430;52.924;-2.388;2023-06-22T02:38:03;5.03;;;2.80;;
43803;SDS011;29430;52.924;-2.388;2023-06-22T02:42:56;6.90;;;3.25;;
43803;SDS011;29430;52.924;-2.388;2023-06-22T02:47:49;4.13;;;2.70;;
43803;SDS011;29430;52.924;-2.388;2023-06-22T02:52:41;6.50;;;2.97;;
43803;SDS011;29430;52.924;-2.388;2023-06-22T02:57:33;5.85;;;2.88;;
43803;SDS011;29430;52.924;-2.388;2023-06-22T03:02:24;6.15;;;3.53;;
43803;SDS011;29430;52.924;-2.388;2023-06-22T03:07:17;6.50;;;3.67;;
43803;SDS011;29430;52.924;-2.388;2023-06-22T03:12:09;7.53;;;3.25;;
43803;SDS011;29430;52.924;-2.388;2023-06-22T03:17:01;6.88;;;3.65;;
43803;SDS011;29430;52.924;-2.388;2023-06-22T03:21:54;5.53;;;3.50;;
43803;SDS011;29430;52.924;-2.388;2023-06-22T03:26:46;6.55;;;3.70;;
43803;SDS011;29430;52.924;-2.388;2023-06-22T03:31:38;6.07;;;4.22;;
43803;SDS011;29430;52.924;-2.388;2023-06-22T03:36:29;5.45;;;3.42;;
43803;SDS011;29430;52.924;-2.388;2023-06-22T03:41:21;7.25;;;3.45;;
43803;SDS011;29430;52.924;-2.388;2023-06-22T03:46:13;6.05;;;4.10;;
43803;SDS011;29430;52.924;-2.388;2023-06-22T03:51:05;6.82;;;2.97;;
43803;SDS011;29430;52.924;-2.388;2023-06-22T03:55:57;5.68;;;3.35;;
43803;SDS011;29430;52.924;-2.388;2023-06-22T04:00:50;5.80;;;3.40;;
43803;SDS011;29430;52.924;-2.388;2023-06-22T04:05:43;6.28;;;3.30;;
43803;SDS011;29430;52.924;-2.388;2023-06-22T04:10:34;9.40;;;4.93;;
43803;SDS011;29430;52.924;-2.388;2023-06-22T04:15:26;9.45;;;4.13;;
43803;SDS011;29430;52.924;-2.388;2023-06-22T04:20:18;8.55;;;4.10;;
43803;SDS011;29430;52.924;-2.388;2023-06-22T04:25:09;10.88;;;4.18;;
43803;SDS011;29430;52.924;-2.388;2023-06-22T04:30:01;4.95;;;3.38;;
43803;SDS011;29430;52.924;-2.388;2023-06-22T04:34:53;5.97;;;3.75;;
43803;SDS011;29430;52.924;-2.388;2023-06-22T04:39:45;5.53;;;2.97;;
43803;SDS011;29430;52.924;-2.388;2023-06-22T04:44:36;4.55;;;3.08;;
43803;SDS011;29430;52.924;-2.388;2023-06-22T04:49:28;7.65;;;4.53;;
43803;SDS011;29430;52.924;-2.388;2023-06-22T04:54:24;8.68;;;4.93;;
43803;SDS011;29430;52.924;-2.388;2023-06-22T04:59:16;5.60;;;3.67;;
43803;SDS011;29430;52.924;-2.388;2023-06-22T05:04:10;5.00;;;4.10;;
43803;SDS011;29430;52.924;-2.388;2023-06-22T05:09:02;9.63;;;4.25;;
43803;SDS011;29430;52.924;-2.388;2023-06-22T05:13:54;6.82;;;4.40;;
43803;SDS011;29430;52.924;-2.388;2023-06-22T05:18:47;6.07;;;4.40;;
43803;SDS011;29430;52.924;-2.388;2023-06-22T05:23:39;7.05;;;3.85;;
43803;SDS011;29430;52.924;-2.388;2023-06-22T05:28:30;6.28;;;4.03;;
43803;SDS011;29430;52.924;-2.388;2023-06-22T05:33:22;6.95;;;4.63;;
43803;SDS011;29430;52.924;-2.388;2023-06-22T05:38:14;7.60;;;4.63;;
43803;SDS011;29430;52.924;-2.388;2023-06-22T05:43:05;5.40;;;3.97;;
43803;SDS011;29430;52.924;-2.388;2023-06-22T05:47:57;6.22;;;3.65;;
43803;SDS011;29430;52.924;-2.388;2023-06-22T05:52:49;9.50;;;3.78;;
43803;SDS011;29430;52.924;-2.388;2023-06-22T05:57:41;5.55;;;4.03;;
43803;SDS011;29430;52.924;-2.388;2023-06-22T06:02:32;6.00;;;4.47;;
43803;SDS011;29430;52.924;-2.388;2023-06-22T06:07:25;10.57;;;4.55;;
43803;SDS011;29430;52.924;-2.388;2023-06-22T06:12:20;6.40;;;5.10;;
43803;SDS011;29430;52.924;-2.388;2023-06-22T06:17:11;5.75;;;3.65;;
43803;SDS011;29430;52.924;-2.388;2023-06-22T06:22:03;8.43;;;4.00;;
43803;SDS011;29430;52.924;-2.388;2023-06-22T06:26:55;6.10;;;3.88;;
43803;SDS011;29430;52.924;-2.388;2023-06-22T06:31:47;4.10;;;3.00;;
43803;SDS011;29430;52.924;-2.388;2023-06-22T06:36:39;5.05;;;3.42;;
43803;SDS011;29430;52.924;-2.388;2023-06-22T06:41:31;4.93;;;3.10;;
43803;SDS011;29430;52.924;-2.388;2023-06-22T06:46:23;7.35;;;3.97;;
43803;SDS011;29430;52.924;-2.388;2023-06-22T06:51:15;5.68;;;3.75;;
43803;SDS011;29430;52.924;-2.388;2023-06-22T06:56:06;7.15;;;4.18;;
43803;SDS011;29430;52.924;-2.388;2023-06-22T07:00:58;6.47;;;4.22;;
43803;SDS011;29430;52.924;-2.388;2023-06-22T07:05:50;9.30;;;4.05;;
43803;SDS011;29430;52.924;-2.388;2023-06-22T07:10:42;4.88;;;3.50;;
43803;SDS011;29430;52.924;-2.388;2023-06-22T07:15:33;4.63;;;3.60;;
43803;SDS011;29430;52.924;-2.388;2023-06-22T07:20:25;5.53;;;3.13;;
43803;SDS011;29430;52.924;-2.388;2023-06-22T07:25:17;5.45;;;3.13;;
43803;SDS011;29430;52.924;-2.388;2023-06-22T07:30:09;5.13;;;4.22;;
43803;SDS011;29430;52.924;-2.388;2023-06-22T07:35:02;4.70;;;3.10;;
43803;SDS011;29430;52.924;-2.388;2023-06-22T07:39:54;7.47;;;4.65;;
43803;SDS011;29430;52.924;-2.388;2023-06-22T07:44:49;6.00;;;4.07;;
43803;SDS011;29430;52.924;-2.388;2023-06-22T07:49:42;5.05;;;4.15;;
43803;SDS011;29430;52.924;-2.388;2023-06-22T07:54:33;4.30;;;3.08;;
43803;SDS011;29430;52.924;-2.388;2023-06-22T07:59:25;6.47;;;3.13;;
43803;SDS011;29430;52.924;-2.388;2023-06-22T08:04:17;6.10;;;2.85;;
43803;SDS011;29430;52.924;-2.388;2023-06-22T08:09:09;5.50;;;2.67;;
43803;SDS011;29430;52.924;-2.388;2023-06-22T08:14:01;6.97;;;2.88;;
43803;SDS011;29430;52.924;-2.388;2023-06-22T08:18:52;3.30;;;2.40;;
43803;SDS011;29430;52.924;-2.388;2023-06-22T08:23:44;4.50;;;3.22;;
43803;SDS011;29430;52.924;-2.388;2023-06-22T08:28:36;3.95;;;2.50;;
43803;SDS011;29430;52.924;-2.388;2023-06-22T08:33:27;5.15;;;2.63;;
43803;SDS011;29430;52.924;-2.388;2023-06-22T08:38:20;4.85;;;3.45;;
43803;SDS011;29430;52.924;-2.388;2023-06-22T08:43:13;3.92;;;2.40;;
43803;SDS011;29430;52.924;-2.388;2023-06-22T08:48:05;5.85;;;3.20;;
43803;SDS011;29430;52.924;-2.388;2023-06-22T08:52:57;3.30;;;2.65;;
43803;SDS011;29430;52.924;-2.388;2023-06-22T08:57:49;6.50;;;3.63;;
43803;SDS011;29430;52.924;-2.388;2023-06-22T09:02:42;5.63;;;3.55;;
43803;SDS011;29430;52.924;-2.388;2023-06-22T09:07:35;8.52;;;3.17;;
43803;SDS011;29430;52.924;-2.388;2023-06-22T09:12:26;4.72;;;3.92;;
43803;SDS011;29430;52.924;-2.388;2023-06-22T09:17:18;4.03;;;2.97;;
43803;SDS011;29430;52.924;-2.388;2023-06-22T09:22:10;4.45;;;4.00;;
43803;SDS011;29430;52.924;-2.388;2023-06-22T09:27:02;5.40;;;3.80;;
43803;SDS011;29430;52.924;-2.388;2023-06-22T09:31:54;5.22;;;3.72;;
43803;SDS011;29430;52.924;-2.388;2023-06-22T09:36:47;5.10;;;4.20;;
43803;SDS011;29430;52.924;-2.388;2023-06-22T09:41:39;5.25;;;4.13;;
43803;SDS011;29430;52.924;-2.388;2023-06-22T09:46:30;7.03;;;4.55;;
43803;SDS011;29430;52.924;-2.388;2023-06-22T09:51:22;4.65;;;3.55;;
43803;SDS011;29430;52.924;-2.388;2023-06-22T09:56:15;5.85;;;4.70;;
43803;SDS011;29430;52.924;-2.388;2023-06-22T10:01:07;5.68;;;4.55;;
43803;SDS011;29430;52.924;-2.388;2023-06-22T10:05:58;4.72;;;4.22;;
43803;SDS011;29430;52.924;-2.388;2023-06-22T10:10:50;4.07;;;2.97;;
43803;SDS011;29430;52.924;-2.388;2023-06-22T10:15:44;3.88;;;3.40;;
43803;SDS011;29430;52.924;-2.388;2023-06-22T10:20:41;5.25;;;3.83;;
43803;SDS011;29430;52.924;-2.388;2023-06-22T10:25:32;7.35;;;4.38;;
43803;SDS011;29430;52.924;-2.388;2023-06-22T10:30:24;4.85;;;4.35;;
43803;SDS011;29430;52.924;-2.388;2023-06-22T10:35:16;4.88;;;3.28;;
43803;SDS011;29430;52.924;-2.388;2023-06-22T10:40:08;7.30;;;5.55;;
43803;SDS011;29430;52.924;-2.388;2023-06-22T10:45:00;6.28;;;5.00;;
43803;SDS011;29430;52.924;-2.388;2023-06-22T10:49:52;4.30;;;3.90;;
43803;SDS011;29430;52.924;-2.388;2023-06-22T10:54:43;6.05;;;5.40;;
43803;SDS011;29430;52.924;-2.388;2023-06-22T10:59:35;6.70;;;5.07;;
43803;SDS011;29430;52.924;-2.388;2023-06-22T11:04:27;6.65;;;4.93;;
43803;SDS011;29430;52.924;-2.388;2023-06-22T11:09:18;6.50;;;3.72;;
43803;SDS011;29430;52.924;-2.388;2023-06-22T11:14:19;6.40;;;5.07;;
43803;SDS011;29430;52.924;-2.388;2023-06-22T11:19:13;6.75;;;4.93;;
43803;SDS011;29430;52.924;-2.388;2023-06-22T11:24:05;5.28;;;4.03;;
43803;SDS011;29430;52.924;-2.388;2023-06-22T11:28:57;5.07;;;4.32;;
43803;SDS011;29430;52.924;-2.388;2023-06-22T11:33:49;5.53;;;4.38;;
43803;SDS011;29430;52.924;-2.388;2023-06-22T11:38:42;5.28;;;4.63;;
43803;SDS011;29430;52.924;-2.388;2023-06-22T11:43:34;5.43;;;4.78;;
43803;SDS011;29430;52.924;-2.388;2023-06-22T11:48:26;4.75;;;3.50;;
43803;SDS011;29430;52.924;-2.388;2023-06-22T11:53:18;5.80;;;5.15;;
43803;SDS011;29430;52.924;-2.388;2023-06-22T11:58:09;6.30;;;4.85;;
43803;SDS011;29430;52.924;-2.388;2023-06-22T12:03:03;3.95;;;3.47;;
43803;SDS011;29430;52.924;-2.388;2023-06-22T12:07:55;4.80;;;3.88;;
43803;SDS011;29430;52.924;-2.388;2023-06-22T12:12:47;5.07;;;4.03;;
43803;SDS011;29430;52.924;-2.388;2023-06-22T12:17:39;5.15;;;4.35;;
43803;SDS011;29430;52.924;-2.388;2023-06-22T12:22:32;5.80;;;2.70;;
43803;SDS011;29430;52.924;-2.388;2023-06-22T12:27:24;5.13;;;3.00;;
43803;SDS011;29430;52.924;-2.388;2023-06-22T12:32:16;6.60;;;3.17;;
43803;SDS011;29430;52.924;-2.388;2023-06-22T12:37:09;4.25;;;1.88;;
43803;SDS011;29430;52.924;-2.388;2023-06-22T12:42:02;3.38;;;2.03;;
43803;SDS011;29430;52.924;-2.388;2023-06-22T12:46:53;3.10;;;1.75;;
43803;SDS011;29430;52.924;-2.388;2023-06-22T12:51:45;4.80;;;2.17;;
43803;SDS011;29430;52.924;-2.388;2023-06-22T12:56:37;5.03;;;1.80;;
43803;SDS011;29430;52.924;-2.388;2023-06-22T13:01:29;1.95;;;1.13;;
43803;SDS011;29430;52.924;-2.388;2023-06-22T13:06:22;3.40;;;1.23;;
43803;SDS011;29430;52.924;-2.388;2023-06-22T13:11:13;2.80;;;1.45;;
43803;SDS011;29430;52.924;-2.388;2023-06-22T13:16:05;5.65;;;1.80;;
43803;SDS011;29430;52.924;-2.388;2023-06-22T13:20:58;2.70;;;1.88;;
43803;SDS011;29430;52.924;-2.388;2023-06-22T13:25:49;2.90;;;1.90;;
43803;SDS011;29430;52.924;-2.388;2023-06-22T13:30:41;2.58;;;1.95;;
43803;SDS011;29430;52.924;-2.388;2023-06-22T13:35:33;3.80;;;1.60;;
43803;SDS011;29430;52.924;-2.388;2023-06-22T13:40:26;2.83;;;1.90;;
43803;SDS011;29430;52.924;-2.388;2023-06-22T13:45:18;2.75;;;1.40;;
43803;SDS011;29430;52.924;-2.388;2023-06-22T13:50:11;3.42;;;2.20;;
43803;SDS011;29430;52.924;-2.388;2023-06-22T13:55:04;3.65;;;2.42;;
43803;SDS011;29430;52.924;-2.388;2023-06-22T13:59:57;3.30;;;1.95;;
43803;SDS011;29430;52.924;-2.388;2023-06-22T14:04:48;2.40;;;1.20;;
43803;SDS011;29430;52.924;-2.388;2023-06-22T14:09:40;2.95;;;1.25;;
43803;SDS011;29430;52.924;-2.388;2023-06-22T14:14:32;4.45;;;1.60;;
43803;SDS011;29430;52.924;-2.388;2023-06-22T14:19:24;2.80;;;1.67;;
43803;SDS011;29430;52.924;-2.388;2023-06-22T14:24:17;2.50;;;1.30;;
43803;SDS011;29430;52.924;-2.388;2023-06-22T14:29:08;4.90;;;1.35;;
43803;SDS011;29430;52.924;-2.388;2023-06-22T14:34:00;2.72;;;1.75;;
43803;SDS011;29430;52.924;-2.388;2023-06-22T14:38:53;2.40;;;2.05;;
43803;SDS011;29430;52.924;-2.388;2023-06-22T14:43:45;2.83;;;1.88;;
43803;SDS011;29430;52.924;-2.388;2023-06-22T14:48:38;2.95;;;1.42;;
43803;SDS011;29430;52.924;-2.388;2023-06-22T14:53:30;2.95;;;1.40;;
43803;SDS011;29430;52.924;-2.388;2023-06-22T14:58:22;3.63;;;1.40;;
43803;SDS011;29430;52.924;-2.388;2023-06-22T15:03:13;3.25;;;1.73;;
43803;SDS011;29430;52.924;-2.388;2023-06-22T15:08:10;4.28;;;2.50;;
43803;SDS011;29430;52.924;-2.388;2023-06-22T15:13:02;3.67;;;1.73;;
43803;SDS011;29430;52.924;-2.388;2023-06-22T15:17:54;4.60;;;1.42;;
43803;SDS011;29430;52.924;-2.388;2023-06-22T15:22:45;1.77;;;0.90;;
43803;SDS011;29430;52.924;-2.388;2023-06-22T15:27:37;2.63;;;1.20;;
43803;SDS011;29430;52.924;-2.388;2023-06-22T15:32:29;2.63;;;1.20;;
43803;SDS011;29430;52.924;-2.388;2023-06-22T15:37:21;3.03;;;0.95;;
43803;SDS011;29430;52.924;-2.388;2023-06-22T15:42:12;2.67;;;1.08;;
43803;SDS011;29430;52.924;-2.388;2023-06-22T15:47:04;2.30;;;1.10;;
43803;SDS011;29430;52.924;-2.388;2023-06-22T15:51:56;2.58;;;1.20;;
43803;SDS011;29430;52.924;-2.388;2023-06-22T15:56:48;4.45;;;1.27;;
43803;SDS011;29430;52.924;-2.388;2023-06-22T16:01:40;1.63;;;0.70;;
43803;SDS011;29430;52.924;-2.388;2023-06-22T16:06:31;2.80;;;0.90;;
43803;SDS011;29430;52.924;-2.388;2023-06-22T16:11:23;2.28;;;0.80;;
43803;SDS011;29430;52.924;-2.388;2023-06-22T16:16:15;2.80;;;1.40;;
43803;SDS011;29430;52.924;-2.388;2023-06-22T16:21:07;2.95;;;1.30;;
43803;SDS011;29430;52.924;-2.388;2023-06-22T16:25:59;5.18;;;1.80;;
43803;SDS011;29430;52.924;-2.388;2023-06-22T16:30:50;3.60;;;1.55;;
43803;SDS011;29430;52.924;-2.388;2023-06-22T16:35:43;3.90;;;1.70;;
43803;SDS011;29430;52.924;-2.388;2023-06-22T16:40:35;3.72;;;1.60;;
43803;SDS011;29430;52.924;-2.388;2023-06-22T16:45:27;3.75;;;1.70;;
43803;SDS011;29430;52.924;-2.388;2023-06-22T16:50:18;4.03;;;1.60;;
43803;SDS011;29430;52.924;-2.388;2023-06-22T16:55:11;4.93;;;1.15;;
43803;SDS011;29430;52.924;-2.388;2023-06-22T17:00:03;3.28;;;1.80;;
43803;SDS011;29430;52.924;-2.388;2023-06-22T17:04:59;5.88;;;1.30;;
43803;SDS011;29430;52.924;-2.388;2023-06-22T17:09:51;2.47;;;0.98;;
43803;SDS011;29430;52.924;-2.388;2023-06-22T17:14:43;2.35;;;1.23;;
43803;SDS011;29430;52.924;-2.388;2023-06-22T17:19:36;5.00;;;1.45;;
43803;SDS011;29430;52.924;-2.388;2023-06-22T17:24:27;2.25;;;1.15;;
43803;SDS011;29430;52.924;-2.388;2023-06-22T17:29:19;4.20;;;1.50;;
43803;SDS011;29430;52.924;-2.388;2023-06-22T17:34:11;5.22;;;1.30;;
43803;SDS011;29430;52.924;-2.388;2023-06-22T17:39:05;2.35;;;1.10;;
43803;SDS011;29430;52.924;-2.388;2023-06-22T17:43:57;3.65;;;1.30;;
43803;SDS011;29430;52.924;-2.388;2023-06-22T17:48:49;2.10;;;1.10;;
43803;SDS011;29430;52.924;-2.388;2023-06-22T17:53:46;4.82;;;1.20;;
43803;SDS011;29430;52.924;-2.388;2023-06-22T17:58:39;3.50;;;1.08;;
43803;SDS011;29430;52.924;-2.388;2023-06-22T18:03:42;3.33;;;1.35;;
43803;SDS011;29430;52.924;-2.388;2023-06-22T18:08:36;3.55;;;1.10;;
43803;SDS011;29430;52.924;-2.388;2023-06-22T18:13:28;3.10;;;1.23;;
43803;SDS011;29430;52.924;-2.388;2023-06-22T18:18:20;3.65;;;1.02;;
43803;SDS011;29430;52.924;-2.388;2023-06-22T18:23:12;3.67;;;1.38;;
43803;SDS011;29430;52.924;-2.388;2023-06-22T18:28:05;5.22;;;1.00;;
43803;SDS011;29430;52.924;-2.388;2023-06-22T18:32:58;4.47;;;1.00;;
43803;SDS011;29430;52.924;-2.388;2023-06-22T18:37:50;4.07;;;1.00;;
43803;SDS011;29430;52.924;-2.388;2023-06-22T18:42:45;3.92;;;1.02;;
43803;SDS011;29430;52.924;-2.388;2023-06-22T18:47:38;2.67;;;0.90;;
43803;SDS011;29430;52.924;-2.388;2023-06-22T18:52:29;1.70;;;0.73;;
43803;SDS011;29430;52.924;-2.388;2023-06-22T18:57:27;1.73;;;0.82;;
43803;SDS011;29430;52.924;-2.388;2023-06-22T19:07:21;4.20;;;1.10;;
43803;SDS011;29430;52.924;-2.388;2023-06-22T19:12:46;1.77;;;0.90;;
43803;SDS011;29430;52.924;-2.388;2023-06-22T19:17:41;2.03;;;0.80;;
43803;SDS011;29430;52.924;-2.388;2023-06-22T19:22:46;2.20;;;0.80;;
43803;SDS011;29430;52.924;-2.388;2023-06-22T19:27:43;1.77;;;0.77;;
43803;SDS011;29430;52.924;-2.388;2023-06-22T19:32:36;3.40;;;0.93;;
43803;SDS011;29430;52.924;-2.388;2023-06-22T19:37:28;3.97;;;1.00;;
43803;SDS011;29430;52.924;-2.388;2023-06-22T19:42:19;3.17;;;0.80;;
43803;SDS011;29430;52.924;-2.388;2023-06-22T19:47:11;4.30;;;1.08;;
43803;SDS011;29430;52.924;-2.388;2023-06-22T19:52:05;2.40;;;0.80;;
43803;SDS011;29430;52.924;-2.388;2023-06-22T19:57:01;3.22;;;1.10;;
43803;SDS011;29430;52.924;-2.388;2023-06-22T20:01:54;2.10;;;1.10;;
43803;SDS011;29430;52.924;-2.388;2023-06-22T20:07:01;2.80;;;1.15;;
43803;SDS011;29430;52.924;-2.388;2023-06-22T20:11:57;4.35;;;1.50;;
43803;SDS011;29430;52.924;-2.388;2023-06-22T20:16:49;3.90;;;1.40;;
43803;SDS011;29430;52.924;-2.388;2023-06-22T20:21:46;4.65;;;1.10;;
43803;SDS011;29430;52.924;-2.388;2023-06-22T20:26:42;4.00;;;1.58;;
43803;SDS011;29430;52.924;-2.388;2023-06-22T20:31:35;4.13;;;0.90;;
43803;SDS011;29430;52.924;-2.388;2023-06-22T20:36:28;4.57;;;0.98;;
43803;SDS011;29430;52.924;-2.388;2023-06-22T20:41:20;4.90;;;1.00;;
43803;SDS011;29430;52.924;-2.388;2023-06-22T20:46:11;3.42;;;1.25;;
43803;SDS011;29430;52.924;-2.388;2023-06-22T20:51:03;3.72;;;1.13;;
43803;SDS011;29430;52.924;-2.388;2023-06-22T20:55:55;3.38;;;1.20;;
43803;SDS011;29430;52.924;-2.388;2023-06-22T21:00:46;3.13;;;0.75;;
43803;SDS011;29430;52.924;-2.388;2023-06-22T21:05:38;2.20;;;0.75;;
43803;SDS011;29430;52.924;-2.388;2023-06-22T21:10:31;2.90;;;0.80;;
43803;SDS011;29430;52.924;-2.388;2023-06-22T21:15:23;3.00;;;0.90;;
43803;SDS011;29430;52.924;-2.388;2023-06-22T21:20:15;3.67;;;1.05;;
43803;SDS011;29430;52.924;-2.388;2023-06-22T21:25:11;3.65;;;1.02;;
43803;SDS011;29430;52.924;-2.388;2023-06-22T21:30:06;2.50;;;0.80;;
43803;SDS011;29430;52.924;-2.388;2023-06-22T21:34:59;4.75;;;1.00;;
43803;SDS011;29430;52.924;-2.388;2023-06-22T21:39:51;5.03;;;0.93;;
43803;SDS011;29430;52.924;-2.388;2023-06-22T21:44:43;4.10;;;1.30;;
43803;SDS011;29430;52.924;-2.388;2023-06-22T21:49:36;3.28;;;0.90;;
43803;SDS011;29430;52.924;-2.388;2023-06-22T21:54:27;3.38;;;1.00;;
43803;SDS011;29430;52.924;-2.388;2023-06-22T21:59:19;2.13;;;0.95;;
43803;SDS011;29430;52.924;-2.388;2023-06-22T22:04:11;2.60;;;1.17;;
43803;SDS011;29430;52.924;-2.388;2023-06-22T22:09:03;3.20;;;1.45;;
43803;SDS011;29430;52.924;-2.388;2023-06-22T22:13:55;3.15;;;1.80;;
43803;SDS011;29430;52.924;-2.388;2023-06-22T22:18:47;3.05;;;1.67;;
43803;SDS011;29430;52.924;-2.388;2023-06-22T22:23:39;4.32;;;1.17;;
43803;SDS011;29430;52.924;-2.388;2023-06-22T22:28:31;3.50;;;1.50;;
43803;SDS011;29430;52.924;-2.388;2023-06-22T22:33:23;2.90;;;1.33;;
43803;SDS011;29430;52.924;-2.388;2023-06-22T22:38:15;3.85;;;1.30;;
43803;SDS011;29430;52.924;-2.388;2023-06-22T22:43:08;4.53;;;1.92;;
43803;SDS011;29430;52.924;-2.388;2023-06-22T22:48:00;3.30;;;1.63;;
43803;SDS011;29430;52.924;-2.388;2023-06-22T22:52:52;7.80;;;1.45;;
43803;SDS011;29430;52.924;-2.388;2023-06-22T22:57:44;2.92;;;1.55;;
43803;SDS011;29430;52.924;-2.388;2023-06-22T23:02:36;2.65;;;1.48;;
43803;SDS011;29430;52.924;-2.388;2023-06-22T23:07:27;3.17;;;1.95;;
43803;SDS011;29430;52.924;-2.388;2023-06-22T23:12:20;3.83;;;1.17;;
43803;SDS011;29430;52.924;-2.388;2023-06-22T23:17:11;5.70;;;1.50;;
43803;SDS011;29430;52.924;-2.388;2023-06-22T23:22:04;2.78;;;1.40;;
43803;SDS011;29430;52.924;-2.388;2023-06-22T23:26:57;5.35;;;2.20;;
43803;SDS011;29430;52.924;-2.388;2023-06-22T23:31:51;3.70;;;1.92;;
43803;SDS011;29430;52.924;-2.388;2023-06-22T23:36:45;3.40;;;1.83;;
43803;SDS011;29430;52.924;-2.388;2023-06-22T23:41:36;3.30;;;1.67;;
43803;SDS011;29430;52.924;-2.388;2023-06-22T23:46:28;2.85;;;1.75;;
43803;SDS011;29430;52.924;-2.388;2023-06-22T23:51:22;3.17;;;1.42;;
43803;SDS011;29430;52.924;-2.388;2023-06-22T23:56:14;3.17;;;1.50;;
